Time;durP1;ratioP1;P1;durP2;ratioP2;P2;SDS_P1;SDS_P2;PMS_P1;PMS_P2;Temp;Humidity;BMP_temperature;BMP_pressure;BME280_temperature;BME280_humidity;BME280_pressure;Samples;Min_cycle;Max_cycle;Signal;HPM_P1;HPM_P2
2022/04/09 00:01:00;;;;;;;0.40;0.40;;;4.90;99.90;;;;;;7395321;19;20173;-86
2022/04/09 00:03:26;;;;;;;0.20;0.20;;;4.90;99.90;;;;;;7397541;19;20137;-86
2022/04/09 00:05:52;;;;;;;0.13;0.13;;;4.80;99.90;;;;;;7406847;19;20131;-86
2022/04/09 00:08:18;;;;;;;0.20;0.20;;;4.90;99.90;;;;;;7399188;19;20218;-88
2022/04/09 00:10:47;;;;;;;0.30;0.20;;;5.00;99.90;;;;;;7397127;19;20475;-91
2022/04/09 00:13:13;;;;;;;0.77;0.50;;;5.10;99.90;;;;;;7400024;19;20141;-86
2022/04/09 00:15:39;;;;;;;0.30;0.30;;;5.20;99.90;;;;;;7397664;19;20234;-88
2022/04/09 00:18:06;;;;;;;0.67;0.30;;;5.00;99.90;;;;;;7399928;19;20602;-85
2022/04/09 00:20:32;;;;;;;0.30;0.30;;;5.20;99.90;;;;;;7406514;19;20134;-86
2022/04/09 00:22:58;;;;;;;0.27;0.27;;;5.30;99.90;;;;;;7405475;19;20137;-85
2022/04/09 00:25:26;;;;;;;0.30;0.30;;;5.20;99.90;;;;;;7402778;19;20143;-88
2022/04/09 00:27:55;;;;;;;0.30;0.30;;;5.10;99.90;;;;;;7408728;19;20146;-85
2022/04/09 00:30:21;;;;;;;0.30;0.30;;;5.20;99.90;;;;;;7400848;19;20145;-83
2022/04/09 00:32:47;;;;;;;0.33;0.33;;;5.40;99.90;;;;;;7409845;19;20142;-86
2022/04/09 00:35:15;;;;;;;0.40;0.40;;;5.40;99.90;;;;;;7405826;19;20508;-85
2022/04/09 00:37:47;;;;;;;0.30;0.30;;;5.30;99.90;;;;;;7402512;19;20150;-87
2022/04/09 00:40:15;;;;;;;0.37;0.30;;;5.40;99.90;;;;;;7396890;19;20163;-86
2022/04/09 00:42:44;;;;;;;0.37;0.37;;;5.40;99.90;;;;;;7401850;19;20135;-86
2022/04/09 00:45:13;;;;;;;0.40;0.40;;;5.40;99.90;;;;;;7400598;19;20129;-85
2022/04/09 00:47:39;;;;;;;0.27;0.27;;;5.50;99.90;;;;;;7400627;19;20126;-86
2022/04/09 00:50:07;;;;;;;0.53;0.40;;;5.60;99.90;;;;;;7410605;19;20130;-84
2022/04/09 00:52:38;;;;;;;0.60;0.40;;;5.50;99.90;;;;;;7396386;19;20155;-85
2022/04/09 00:55:05;;;;;;;0.40;0.40;;;5.50;99.90;;;;;;7404481;19;20512;-84
2022/04/09 00:57:35;;;;;;;0.53;0.30;;;5.50;99.90;;;;;;7400949;19;20186;-86
2022/04/09 01:00:09;;;;;;;0.30;0.30;;;5.60;99.90;;;;;;7399978;19;20146;-84
2022/04/09 01:02:41;;;;;;;0.10;0.10;;;5.10;99.90;;;;;;7396515;19;20150;-84
2022/04/09 01:05:08;;;;;;;0.20;0.20;;;5.30;99.90;;;;;;7398792;19;20649;-83
2022/04/09 01:07:34;;;;;;;0.20;0.20;;;5.40;99.90;;;;;;7396849;19;20134;-85
2022/04/09 01:10:05;;;;;;;0.30;0.30;;;5.30;99.90;;;;;;7399928;19;20621;-83
2022/04/09 01:12:34;;;;;;;0.20;0.20;;;5.40;99.90;;;;;;7406908;19;20624;-87
2022/04/09 01:15:01;;;;;;;0.30;0.30;;;5.10;99.90;;;;;;7396011;19;20634;-83
2022/04/09 01:17:27;;;;;;;0.50;0.33;;;5.40;99.90;;;;;;7393413;19;20127;-83
2022/04/09 01:19:53;;;;;;;0.57;0.47;;;5.40;99.90;;;;;;7394785;19;20133;-81
2022/04/09 01:22:19;;;;;;;0.30;0.30;;;5.50;99.90;;;;;;7393436;19;20198;-81
2022/04/09 01:24:45;;;;;;;0.70;0.30;;;5.60;99.90;;;;;;7393378;19;20517;-84
2022/04/09 01:27:11;;;;;;;0.93;0.47;;;5.70;99.90;;;;;;7392468;19;20491;-83
2022/04/09 01:29:36;;;;;;;0.80;0.67;;;5.60;99.90;;;;;;7391024;19;20135;-84
2022/04/09 01:32:02;;;;;;;0.73;0.60;;;5.70;99.90;;;;;;7395075;19;20209;-81
2022/04/09 01:34:29;;;;;;;0.60;0.50;;;5.80;99.90;;;;;;7395593;19;20122;-83
2022/04/09 01:36:54;;;;;;;0.50;0.50;;;5.70;99.90;;;;;;7393604;19;20119;-82
2022/04/09 01:39:20;;;;;;;0.40;0.40;;;5.70;99.90;;;;;;7390641;19;20184;-81
2022/04/09 01:41:49;;;;;;;1.30;0.70;;;5.70;99.90;;;;;;7389363;19;20135;-84
2022/04/09 01:44:15;;;;;;;0.77;0.60;;;5.70;99.90;;;;;;7390905;19;20462;-82
2022/04/09 01:46:44;;;;;;;0.90;0.80;;;5.60;99.90;;;;;;7392219;19;20194;-81
2022/04/09 01:49:19;;;;;;;0.70;0.63;;;5.70;99.90;;;;;;7392358;19;20571;-83
2022/04/09 01:51:49;;;;;;;1.30;0.77;;;5.70;99.90;;;;;;7399185;19;20141;-81
2022/04/09 01:54:14;;;;;;;0.77;0.70;;;5.60;99.90;;;;;;7396215;19;20122;-81
2022/04/09 01:56:41;;;;;;;1.10;0.90;;;5.70;99.90;;;;;;7391929;19;20129;-81
2022/04/09 01:59:06;;;;;;;0.50;0.50;;;5.70;99.90;;;;;;7390885;19;20130;-83
2022/04/09 02:01:33;;;;;;;1.43;0.90;;;5.70;99.90;;;;;;7391967;19;20138;-80
2022/04/09 02:03:59;;;;;;;0.70;0.70;;;5.60;99.90;;;;;;7390981;19;20151;-80
2022/04/09 02:06:25;;;;;;;0.73;0.70;;;5.50;99.90;;;;;;7391416;19;20141;-81
2022/04/09 02:08:51;;;;;;;1.00;0.80;;;5.60;99.90;;;;;;7389697;19;20142;-82
2022/04/09 02:11:17;;;;;;;1.07;0.87;;;5.70;99.90;;;;;;7393390;19;20126;-84
2022/04/09 02:13:43;;;;;;;0.97;0.83;;;5.80;99.90;;;;;;7397325;19;20134;-84
2022/04/09 02:16:08;;;;;;;1.10;1.00;;;5.80;99.90;;;;;;7393271;19;20127;-83
2022/04/09 02:18:34;;;;;;;1.20;0.93;;;5.90;99.90;;;;;;7391911;19;20881;-84
2022/04/09 02:21:00;;;;;;;1.00;0.87;;;5.80;99.90;;;;;;7394975;19;20190;-84
2022/04/09 02:23:26;;;;;;;2.03;1.10;;;5.80;99.90;;;;;;7391620;19;20190;-81
2022/04/09 02:25:52;;;;;;;1.10;0.90;;;5.90;99.90;;;;;;7391374;19;20131;-81
2022/04/09 02:28:17;;;;;;;1.40;0.93;;;5.80;99.90;;;;;;7389635;19;20155;-84
2022/04/09 02:30:43;;;;;;;3.13;1.03;;;5.60;99.90;;;;;;7392018;19;20152;-84
2022/04/09 02:33:09;;;;;;;1.43;1.10;;;5.70;99.90;;;;;;7391397;19;20137;-83
2022/04/09 02:35:35;;;;;;;1.53;0.93;;;5.80;99.90;;;;;;7397025;19;20138;-82
2022/04/09 02:38:02;;;;;;;2.20;1.00;;;5.90;99.90;;;;;;7393398;19;20127;-83
2022/04/09 02:40:28;;;;;;;1.57;1.10;;;5.90;99.90;;;;;;7388241;19;20185;-82
2022/04/09 02:42:55;;;;;;;1.83;1.30;;;6.00;99.90;;;;;;7391428;19;20161;-82
2022/04/09 02:45:22;;;;;;;1.20;0.80;;;6.00;99.90;;;;;;7390052;19;20629;-81
2022/04/09 02:47:47;;;;;;;2.17;1.50;;;6.00;99.90;;;;;;7388983;19;20135;-84
2022/04/09 02:50:13;;;;;;;1.23;1.13;;;6.00;99.90;;;;;;7391045;19;20166;-84
2022/04/09 02:52:41;;;;;;;1.57;1.40;;;5.90;99.90;;;;;;7391031;19;20146;-81
2022/04/09 02:55:08;;;;;;;1.57;1.40;;;5.90;99.90;;;;;;7400243;19;20230;-82
2022/04/09 02:57:36;;;;;;;3.43;1.30;;;5.90;99.90;;;;;;7400639;19;20158;-83
2022/04/09 03:00:05;;;;;;;1.50;1.30;;;5.90;99.90;;;;;;7398454;19;20557;-83
2022/04/09 03:02:31;;;;;;;1.13;1.03;;;6.00;99.90;;;;;;7397377;19;20266;-83
2022/04/09 03:04:57;;;;;;;1.60;1.30;;;6.00;99.90;;;;;;7399496;19;20135;-82
2022/04/09 03:07:23;;;;;;;1.33;1.23;;;6.00;99.90;;;;;;7397383;19;20143;-79
2022/04/09 03:09:49;;;;;;;1.23;1.13;;;5.90;99.90;;;;;;7394732;19;20166;-82
2022/04/09 03:12:15;;;;;;;1.17;1.07;;;5.80;99.90;;;;;;7397244;19;20130;-80
2022/04/09 03:14:44;;;;;;;1.27;1.00;;;6.00;99.90;;;;;;7397296;19;20202;-82
2022/04/09 03:17:10;;;;;;;1.00;0.90;;;6.00;99.90;;;;;;7408333;19;20210;-82
2022/04/09 03:19:36;;;;;;;0.97;0.87;;;5.80;99.90;;;;;;7402572;19;20135;-83
2022/04/09 03:22:02;;;;;;;0.90;0.90;;;6.00;99.90;;;;;;7396579;19;20131;-83
2022/04/09 03:24:29;;;;;;;1.10;0.97;;;6.10;99.90;;;;;;7396958;19;20642;-81
2022/04/09 03:26:55;;;;;;;0.90;0.90;;;5.90;99.90;;;;;;7396566;19;20138;-81
2022/04/09 03:29:21;;;;;;;1.73;1.07;;;5.90;99.90;;;;;;7394002;19;20139;-83
2022/04/09 03:31:47;;;;;;;1.13;1.00;;;5.90;99.90;;;;;;7397099;19;20122;-84
2022/04/09 03:34:13;;;;;;;1.77;1.20;;;6.00;99.90;;;;;;7396274;19;20131;-83
2022/04/09 03:36:39;;;;;;;1.13;1.03;;;6.20;99.90;;;;;;7397460;19;20137;-80
2022/04/09 03:39:05;;;;;;;2.40;1.60;;;6.10;99.90;;;;;;7395421;19;20229;-84
2022/04/09 03:41:31;;;;;;;2.50;1.53;;;6.20;99.90;;;;;;7412558;19;20142;-82
2022/04/09 03:43:57;;;;;;;1.57;1.47;;;6.00;99.90;;;;;;7396832;19;20130;-83
2022/04/09 03:46:22;;;;;;;2.40;1.57;;;6.10;99.90;;;;;;7394946;19;20493;-80
2022/04/09 03:48:48;;;;;;;1.83;1.60;;;6.10;99.90;;;;;;7393715;19;20164;-81
2022/04/09 03:51:14;;;;;;;2.37;1.90;;;6.20;99.90;;;;;;7396062;19;20202;-80
2022/04/09 03:53:40;;;;;;;2.53;2.07;;;6.20;99.90;;;;;;7395197;19;20126;-83
2022/04/09 03:56:06;;;;;;;2.47;2.27;;;6.20;99.90;;;;;;7397059;19;20130;-81
2022/04/09 03:58:31;;;;;;;4.43;2.63;;;6.30;99.90;;;;;;7395623;19;20147;-84
2022/04/09 04:00:57;;;;;;;3.33;2.50;;;6.20;99.90;;;;;;7401597;19;20152;-82
2022/04/09 04:03:25;;;;;;;3.93;2.73;;;6.20;99.90;;;;;;7402413;19;20137;-81
2022/04/09 04:05:51;;;;;;;5.73;3.47;;;6.30;99.90;;;;;;7393155;19;20535;-82
2022/04/09 04:08:17;;;;;;;6.03;3.57;;;6.00;99.90;;;;;;7394164;19;20134;-80
2022/04/09 04:10:43;;;;;;;7.03;3.50;;;6.20;99.90;;;;;;7395355;19;20135;-83
2022/04/09 04:13:09;;;;;;;4.97;3.40;;;6.40;99.90;;;;;;7396793;19;20138;-83
2022/04/09 04:15:34;;;;;;;4.57;3.27;;;6.50;99.90;;;;;;7393984;19;20134;-84
2022/04/09 04:18:01;;;;;;;8.20;4.03;;;6.20;99.90;;;;;;7395303;19;20613;-83
2022/04/09 04:20:26;;;;;;;4.93;3.43;;;6.40;99.90;;;;;;7403056;19;20127;-83
2022/04/09 04:22:53;;;;;;;7.13;4.13;;;6.30;99.90;;;;;;7397524;19;20149;-81
2022/04/09 04:25:19;;;;;;;6.87;3.83;;;6.30;99.90;;;;;;7394058;19;20126;-81
2022/04/09 04:27:47;;;;;;;6.13;4.63;;;6.30;99.90;;;;;;7392838;19;20139;-80
2022/04/09 04:30:13;;;;;;;4.00;3.60;;;6.20;99.90;;;;;;7393743;19;20131;-82
2022/04/09 04:32:40;;;;;;;6.47;4.30;;;6.30;99.90;;;;;;7393988;19;20158;-80
2022/04/09 04:35:07;;;;;;;5.77;4.23;;;5.90;99.90;;;;;;7394264;19;20131;-80
2022/04/09 04:37:41;;;;;;;4.70;3.90;;;6.10;99.90;;;;;;7395630;19;20134;-82
2022/04/09 04:40:08;;;;;;;5.97;4.07;;;5.60;99.90;;;;;;7391030;19;20163;-79
2022/04/09 04:42:34;;;;;;;5.00;4.20;;;5.80;99.90;;;;;;7401174;19;20139;-78
2022/04/09 04:45:00;;;;;;;6.47;3.97;;;5.80;99.90;;;;;;7394148;19;20131;-80
2022/04/09 04:47:25;;;;;;;9.03;4.40;;;6.00;99.90;;;;;;7391438;19;20154;-80
2022/04/09 04:49:51;;;;;;;8.47;4.30;;;6.10;99.90;;;;;;7389758;19;20131;-80
2022/04/09 04:52:17;;;;;;;8.17;3.83;;;6.00;99.90;;;;;;7392289;19;20147;-80
2022/04/09 04:54:43;;;;;;;6.97;3.77;;;6.10;99.90;;;;;;7392567;19;20210;-80
2022/04/09 04:57:08;;;;;;;6.57;3.70;;;6.00;99.90;;;;;;7391638;19;20127;-81
2022/04/09 04:59:34;;;;;;;6.13;4.37;;;6.00;99.90;;;;;;7392904;19;20139;-79
2022/04/09 05:02:00;;;;;;;7.20;4.60;;;6.00;99.90;;;;;;7396676;19;20189;-81
2022/04/09 05:04:26;;;;;;;7.13;4.23;;;6.20;99.90;;;;;;7397162;19;20123;-81
2022/04/09 05:06:52;;;;;;;7.10;3.73;;;6.30;99.90;;;;;;7391384;19;20147;-81
2022/04/09 05:09:20;;;;;;;7.73;4.27;;;6.40;99.90;;;;;;7389825;19;20138;-81
2022/04/09 05:11:46;;;;;;;7.03;3.57;;;6.40;99.90;;;;;;7391443;19;20157;-81
2022/04/09 05:14:12;;;;;;;4.43;3.53;;;6.30;99.90;;;;;;7391215;19;20169;-79
2022/04/09 05:16:38;;;;;;;5.80;3.40;;;6.40;99.90;;;;;;7391697;19;20142;-81
2022/04/09 05:19:05;;;;;;;7.20;3.63;;;6.40;99.90;;;;;;7393328;19;20130;-79
2022/04/09 05:21:31;;;;;;;6.17;3.60;;;6.50;99.90;;;;;;7393580;19;20122;-80
2022/04/09 05:23:57;;;;;;;4.50;3.90;;;6.50;99.90;;;;;;7400275;19;20146;-78
2022/04/09 05:26:23;;;;;;;5.80;3.27;;;6.40;99.90;;;;;;7390060;19;20563;-77
2022/04/09 05:28:54;;;;;;;5.57;3.93;;;6.50;99.90;;;;;;7388927;19;20166;-79
2022/04/09 05:31:27;;;;;;;6.13;4.03;;;6.40;99.90;;;;;;7393049;19;20127;-78
2022/04/09 05:33:56;;;;;;;6.47;3.93;;;6.40;99.90;;;;;;7391884;19;20145;-81
2022/04/09 05:36:22;;;;;;;7.07;3.90;;;6.30;99.90;;;;;;7389414;19;20150;-77
2022/04/09 05:38:48;;;;;;;7.00;3.27;;;6.50;99.90;;;;;;7388988;19;20189;-78
2022/04/09 05:41:14;;;;;;;8.87;4.27;;;6.50;99.90;;;;;;7390685;19;20146;-81
2022/04/09 05:43:39;;;;;;;6.97;3.50;;;6.30;99.90;;;;;;7391684;19;20126;-82
2022/04/09 05:46:06;;;;;;;6.67;3.40;;;6.40;99.90;;;;;;7397399;19;20126;-79
2022/04/09 05:48:32;;;;;;;5.93;3.60;;;6.50;99.90;;;;;;7391512;19;20122;-78
2022/04/09 05:50:58;;;;;;;10.83;4.10;;;6.40;99.90;;;;;;7389363;19;20140;-79
2022/04/09 05:53:23;;;;;;;7.53;3.63;;;6.50;99.90;;;;;;7390022;19;20119;-78
2022/04/09 05:55:49;;;;;;;7.10;3.50;;;6.50;99.90;;;;;;7390842;19;20620;-78
2022/04/09 05:58:15;;;;;;;5.50;3.77;;;6.60;99.90;;;;;;7390628;19;20210;-80
2022/04/09 06:00:41;;;;;;;7.27;3.60;;;6.50;99.90;;;;;;7389078;19;20146;-77
2022/04/09 06:03:06;;;;;;;4.57;3.10;;;6.20;99.90;;;;;;7388269;19;20138;-81
2022/04/09 06:05:32;;;;;;;6.00;3.40;;;6.30;99.90;;;;;;7389772;19;20158;-78
2022/04/09 06:07:58;;;;;;;6.43;4.27;;;6.50;99.90;;;;;;7395838;19;20185;-78
2022/04/09 06:10:25;;;;;;;5.33;3.60;;;6.60;99.90;;;;;;7391947;19;20209;-80
2022/04/09 06:12:51;;;;;;;4.67;3.20;;;6.80;99.90;;;;;;7387580;19;20134;-77
2022/04/09 06:15:17;;;;;;;7.47;3.43;;;6.80;99.90;;;;;;7387782;19;20130;-80
2022/04/09 06:17:42;;;;;;;4.63;2.80;;;6.70;99.90;;;;;;7389012;19;20142;-80
2022/04/09 06:20:09;;;;;;;4.07;3.17;;;6.60;99.90;;;;;;7390129;19;20607;-81
2022/04/09 06:22:35;;;;;;;8.23;3.10;;;6.30;99.90;;;;;;7388572;19;20138;-78
2022/04/09 06:25:01;;;;;;;5.47;3.50;;;6.10;99.90;;;;;;7390477;19;20150;-77
2022/04/09 06:27:27;;;;;;;6.87;2.87;;;6.30;99.90;;;;;;7394019;19;20578;-78
2022/04/09 06:29:53;;;;;;;5.43;3.10;;;6.40;99.90;;;;;;7387330;19;20162;-81
2022/04/09 06:32:18;;;;;;;5.70;3.20;;;6.30;99.90;;;;;;7388202;19;20765;-81
2022/04/09 06:34:44;;;;;;;5.30;2.93;;;6.40;99.90;;;;;;7390359;19;20125;-82
2022/04/09 06:37:10;;;;;;;8.40;3.90;;;6.50;99.90;;;;;;7388609;19;20193;-81
2022/04/09 06:39:36;;;;;;;6.87;3.47;;;6.40;99.90;;;;;;7388567;19;20155;-77
2022/04/09 06:42:02;;;;;;;10.23;4.23;;;6.60;99.90;;;;;;7389712;19;20166;-82
2022/04/09 06:44:28;;;;;;;9.23;3.80;;;6.60;99.90;;;;;;7392021;19;20507;-78
2022/04/09 06:46:53;;;;;;;5.30;3.07;;;6.90;99.90;;;;;;7391488;19;20963;-80
2022/04/09 06:49:19;;;;;;;6.03;2.80;;;7.10;99.90;;;;;;7394390;19;20509;-80
2022/04/09 06:51:45;;;;;;;8.03;3.10;;;7.20;99.90;;;;;;7397910;19;20138;-77
2022/04/09 06:54:12;;;;;;;8.73;2.93;;;7.10;99.90;;;;;;7394721;19;20139;-77
2022/04/09 06:56:38;;;;;;;7.53;2.90;;;7.00;99.90;;;;;;7394979;19;20158;-77
2022/04/09 06:59:04;;;;;;;6.00;3.10;;;7.00;99.90;;;;;;7390939;19;20143;-82
2022/04/09 07:01:30;;;;;;;6.07;2.43;;;7.00;99.90;;;;;;7388593;19;20218;-81
2022/04/09 07:03:56;;;;;;;7.47;2.73;;;6.90;99.90;;;;;;7390159;19;20137;-78
2022/04/09 07:06:24;;;;;;;6.47;2.90;;;7.10;99.90;;;;;;7388981;19;20141;-82
2022/04/09 07:08:51;;;;;;;3.50;2.27;;;7.10;99.90;;;;;;7388294;19;20154;-81
2022/04/09 07:11:17;;;;;;;3.33;2.40;;;7.20;99.90;;;;;;7395508;19;20147;-76
2022/04/09 07:13:43;;;;;;;5.30;2.67;;;7.30;99.90;;;;;;7407709;19;20135;-81
2022/04/09 07:16:09;;;;;;;4.33;2.83;;;7.40;99.90;;;;;;7390501;19;20151;-80
2022/04/09 07:18:35;;;;;;;3.20;2.23;;;7.00;99.90;;;;;;7389984;19;20235;-80
2022/04/09 07:21:01;;;;;;;3.43;2.40;;;7.10;99.90;;;;;;7392728;19;20154;-76
2022/04/09 07:23:28;;;;;;;8.23;3.53;;;7.30;99.90;;;;;;7392932;19;20150;-80
2022/04/09 07:25:53;;;;;;;5.03;2.50;;;7.60;99.90;;;;;;7388895;19;20131;-79
2022/04/09 07:28:19;;;;;;;7.90;3.63;;;7.70;99.90;;;;;;7392437;19;20184;-81
2022/04/09 07:30:45;;;;;;;4.87;2.97;;;8.00;99.90;;;;;;7378316;19;20143;-73
2022/04/09 07:33:11;;;;;;;7.30;3.30;;;8.10;99.90;;;;;;7382018;19;20157;-74
2022/04/09 07:35:37;;;;;;;12.43;3.00;;;8.20;99.90;;;;;;7394949;19;20448;-81
2022/04/09 07:38:04;;;;;;;3.57;2.20;;;8.50;99.90;;;;;;7390174;19;20202;-77
2022/04/09 07:40:29;;;;;;;3.60;2.30;;;8.60;99.90;;;;;;7388498;19;20154;-72
2022/04/09 07:42:59;;;;;;;3.33;2.30;;;8.70;99.90;;;;;;7391611;19;20137;-77
2022/04/09 07:45:26;;;;;;;5.37;2.30;;;8.80;99.90;;;;;;7395046;19;20648;-77
2022/04/09 07:47:57;;;;;;;4.00;2.60;;;9.10;99.90;;;;;;7381702;19;20137;-77
2022/04/09 07:50:23;;;;;;;5.37;2.60;;;9.60;99.90;;;;;;7396970;19;20119;-77
2022/04/09 07:52:49;;;;;;;5.63;2.63;;;9.80;99.90;;;;;;7393665;19;20145;-76
2022/04/09 07:55:16;;;;;;;6.53;2.90;;;9.70;99.90;;;;;;7398415;19;20142;-72
2022/04/09 07:57:47;;;;;;;6.40;2.90;;;9.90;99.90;;;;;;7392018;19;20311;-75
2022/04/09 08:00:17;;;;;;;4.33;2.50;;;9.80;99.90;;;;;;7392732;19;20158;-72
2022/04/09 08:02:43;;;;;;;3.07;2.20;;;9.50;99.90;;;;;;7394452;19;20647;-73
2022/04/09 08:05:10;;;;;;;4.83;2.70;;;9.10;99.90;;;;;;7391813;19;20205;-72
2022/04/09 08:07:40;;;;;;;3.80;2.57;;;8.90;99.90;;;;;;7390018;19;20237;-73
2022/04/09 08:10:07;;;;;;;5.13;2.40;;;8.70;99.90;;;;;;7390374;19;20488;-73
2022/04/09 08:12:33;;;;;;;4.27;2.70;;;8.60;99.90;;;;;;7391021;19;20151;-73
2022/04/09 08:15:00;;;;;;;8.70;2.37;;;8.40;99.90;;;;;;7389552;19;20163;-76
2022/04/09 08:17:26;;;;;;;7.83;2.03;;;8.30;99.90;;;;;;7398816;19;20150;-78
2022/04/09 08:19:51;;;;;;;4.80;2.27;;;8.20;99.90;;;;;;7390493;19;20614;-80
2022/04/09 08:22:18;;;;;;;3.00;1.80;;;8.20;99.90;;;;;;7394447;19;20146;-78
2022/04/09 08:24:45;;;;;;;3.33;1.80;;;8.20;99.90;;;;;;7391961;19;20222;-80
2022/04/09 08:27:11;;;;;;;4.77;1.97;;;8.10;99.90;;;;;;7394521;19;20133;-77
2022/04/09 08:29:37;;;;;;;8.33;2.60;;;8.10;99.90;;;;;;7388396;19;20174;-79
2022/04/09 08:32:04;;;;;;;4.30;1.97;;;8.10;99.90;;;;;;7395820;19;20158;-79
2022/04/09 08:34:35;;;;;;;5.00;1.80;;;8.10;99.90;;;;;;7397493;19;20131;-76
2022/04/09 08:37:03;;;;;;;2.70;1.43;;;8.20;99.90;;;;;;7400942;19;20146;-82
2022/04/09 08:39:34;;;;;;;4.90;1.83;;;8.20;99.90;;;;;;7394515;19;20202;-80
2022/04/09 08:42:08;;;;;;;5.30;2.00;;;8.20;99.90;;;;;;7395119;19;20493;-81
2022/04/09 08:44:35;;;;;;;5.03;2.00;;;8.20;99.90;;;;;;7396502;19;20170;-81
2022/04/09 08:47:01;;;;;;;5.53;2.03;;;8.10;99.90;;;;;;7392771;19;20239;-77
2022/04/09 08:49:30;;;;;;;6.60;2.00;;;8.20;99.90;;;;;;7389834;19;20609;-77
2022/04/09 08:51:56;;;;;;;5.43;2.00;;;8.20;99.90;;;;;;7393907;19;20634;-80
2022/04/09 08:54:23;;;;;;;8.97;2.50;;;8.20;99.90;;;;;;7392827;19;20154;-73
2022/04/09 08:56:50;;;;;;;4.00;1.70;;;8.00;99.90;;;;;;7388946;19;20195;-68
2022/04/09 08:59:16;;;;;;;4.43;2.00;;;8.20;99.90;;;;;;7392950;19;20131;-72
2022/04/09 09:01:42;;;;;;;3.50;1.80;;;8.20;99.90;;;;;;7388582;19;20146;-70
2022/04/09 09:04:08;;;;;;;4.27;1.83;;;8.20;99.90;;;;;;7390373;19;20688;-76
2022/04/09 09:06:39;;;;;;;5.07;1.93;;;8.40;99.90;;;;;;7392121;19;20509;-74
2022/04/09 09:09:05;;;;;;;3.47;1.80;;;8.60;99.90;;;;;;7393415;19;20139;-74
2022/04/09 09:11:53;;;;;;;6.03;2.30;;;8.90;99.90;;;;;;7390709;19;20142;-70
2022/04/09 09:14:29;;;;;;;3.30;2.17;;;9.10;99.90;;;;;;7387509;19;20186;-70
2022/04/09 09:16:58;;;;;;;4.10;2.00;;;9.30;99.90;;;;;;7390624;19;20126;-68
2022/04/09 09:19:48;;;;;;;6.37;1.67;;;9.60;99.90;;;;;;7393784;19;20515;-72
2022/04/09 09:22:19;;;;;;;3.17;2.10;;;9.70;99.90;;;;;;7391858;19;20202;-65
2022/04/09 09:25:05;;;;;;;7.30;1.87;;;9.50;99.90;;;;;;7391425;19;20221;-75
2022/04/09 09:27:31;;;;;;;4.20;1.90;;;9.50;99.90;;;;;;7391836;19;20227;-74
2022/04/09 09:29:57;;;;;;;2.73;1.83;;;9.50;99.90;;;;;;7388178;19;20150;-68
2022/04/09 09:32:29;;;;;;;8.03;2.10;;;9.40;99.90;;;;;;7389617;19;20142;-77
2022/04/09 09:35:01;;;;;;;3.07;1.73;;;9.20;99.90;;;;;;7390720;19;20147;-68
2022/04/09 09:37:29;;;;;;;3.10;1.60;;;9.20;99.90;;;;;;7391264;19;20139;-70
2022/04/09 09:39:55;;;;;;;4.43;1.67;;;9.20;99.90;;;;;;7392023;19;20174;-68
2022/04/09 09:42:24;;;;;;;8.30;1.80;;;9.20;99.90;;;;;;7389379;19;20143;-72
2022/04/09 09:44:50;;;;;;;4.50;1.80;;;9.20;99.90;;;;;;7390793;19;20130;-77
2022/04/09 09:47:17;;;;;;;4.23;1.67;;;9.30;99.90;;;;;;7388743;19;20198;-69
2022/04/09 09:49:53;;;;;;;6.67;1.80;;;9.50;99.90;;;;;;7390277;19;20614;-75
2022/04/09 09:52:23;;;;;;;2.90;1.80;;;9.70;99.90;;;;;;7391332;19;20179;-71
2022/04/09 09:55:01;;;;;;;4.20;1.70;;;9.80;99.90;;;;;;7395895;19;20198;-69
2022/04/09 09:57:29;;;;;;;4.70;1.80;;;10.00;99.90;;;;;;7394498;19;20214;-70
2022/04/09 10:00:02;;;;;;;3.20;1.50;;;9.80;99.90;;;;;;7387831;19;20155;-71
2022/04/09 10:02:27;;;;;;;3.53;2.07;;;9.90;99.90;;;;;;7391344;19;20561;-74
2022/04/09 10:04:54;;;;;;;4.47;1.63;;;10.10;99.90;;;;;;7388506;19;20139;-75
2022/04/09 10:07:20;;;;;;;3.33;1.57;;;10.20;99.90;;;;;;7387725;19;20150;-73
2022/04/09 10:09:49;;;;;;;4.67;1.70;;;10.10;99.90;;;;;;7390689;19;20151;-71
2022/04/09 10:12:24;;;;;;;4.17;1.57;;;10.00;99.90;;;;;;7388985;19;20157;-69
2022/04/09 10:14:56;;;;;;;5.07;1.30;;;10.00;99.90;;;;;;7389555;19;20158;-75
2022/04/09 10:17:22;;;;;;;2.63;1.63;;;10.00;99.90;;;;;;7389565;19;20135;-71
2022/04/09 10:20:01;;;;;;;3.37;1.47;;;9.80;99.90;;;;;;7388326;19;20160;-70
2022/04/09 10:22:45;;;;;;;3.73;1.40;;;9.50;99.90;;;;;;7393117;19;20141;-73
2022/04/09 10:25:13;;;;;;;3.20;1.90;;;9.40;99.90;;;;;;7389048;19;20163;-74
2022/04/09 10:27:42;;;;;;;3.93;1.60;;;9.50;99.90;;;;;;7389842;19;20183;-73
2022/04/09 10:30:14;;;;;;;5.50;1.70;;;9.30;99.90;;;;;;7386099;19;20138;-75
2022/04/09 10:32:53;;;;;;;2.70;1.50;;;9.50;99.90;;;;;;7389042;19;20139;-75
2022/04/09 10:35:39;;;;;;;4.33;1.47;;;9.40;99.90;;;;;;7392351;19;20146;-74
2022/04/09 10:38:10;;;;;;;3.30;1.50;;;9.30;99.90;;;;;;7387448;19;20141;-75
2022/04/09 10:40:57;;;;;;;6.23;1.60;;;9.70;99.90;;;;;;7386480;19;20150;-70
2022/04/09 10:43:23;;;;;;;5.83;1.63;;;9.90;99.90;;;;;;7388036;19;20141;-70
2022/04/09 10:46:05;;;;;;;3.10;1.80;;;10.00;99.90;;;;;;7391074;19;20724;-75
2022/04/09 10:48:41;;;;;;;4.57;1.37;;;9.70;99.90;;;;;;7388106;19;20218;-75
2022/04/09 10:51:16;;;;;;;2.43;1.40;;;9.40;99.90;;;;;;7387605;19;20139;-70
2022/04/09 10:53:49;;;;;;;4.33;1.40;;;9.50;99.90;;;;;;7388361;19;20150;-70
2022/04/09 10:56:29;;;;;;;6.93;1.50;;;9.50;99.90;;;;;;7388987;19;20131;-75
2022/04/09 10:59:13;;;;;;;4.43;1.57;;;9.40;99.90;;;;;;7388121;19;20202;-71
2022/04/09 11:01:48;;;;;;;5.17;1.87;;;9.40;99.90;;;;;;7382915;19;20139;-75
2022/04/09 11:04:32;;;;;;;5.20;1.80;;;9.30;99.90;;;;;;7387905;19;20146;-70
2022/04/09 11:07:14;;;;;;;2.83;1.40;;;9.20;99.90;;;;;;7389405;19;20151;-74
2022/04/09 11:09:49;;;;;;;1.83;1.40;;;8.90;99.90;;;;;;7386716;19;20626;-73
2022/04/09 11:12:24;;;;;;;2.60;1.30;;;9.00;99.90;;;;;;7384153;19;20189;-81
2022/04/09 11:14:56;;;;;;;3.67;1.40;;;9.30;99.90;;;;;;7391563;19;20146;-81
2022/04/09 11:17:33;;;;;;;3.07;1.23;;;9.50;99.90;;;;;;7394424;19;20157;-73
2022/04/09 11:20:06;;;;;;;2.53;1.30;;;9.60;99.90;;;;;;7405328;19;20134;-79
2022/04/09 11:22:37;;;;;;;3.50;1.47;;;9.70;99.90;;;;;;7398514;19;20135;-73
2022/04/09 11:25:08;;;;;;;4.23;1.23;;;9.80;99.90;;;;;;7394786;19;20139;-73
2022/04/09 11:27:34;;;;;;;6.17;1.50;;;9.80;99.90;;;;;;7393033;19;20139;-74
2022/04/09 11:30:01;;;;;;;3.10;1.10;;;10.00;99.90;;;;;;7393646;19;20214;-79
2022/04/09 11:32:29;;;;;;;4.20;1.10;;;10.10;99.90;;;;;;7393618;19;20146;-73
2022/04/09 11:34:59;;;;;;;3.33;1.60;;;10.10;99.90;;;;;;7390924;19;20145;-73
2022/04/09 11:37:29;;;;;;;3.30;1.30;;;9.90;99.90;;;;;;7394168;19;20166;-78
2022/04/09 11:39:57;;;;;;;5.00;1.50;;;10.20;99.90;;;;;;7391516;19;20151;-80
2022/04/09 11:42:24;;;;;;;4.23;1.60;;;10.40;99.90;;;;;;7397021;19;20131;-77
2022/04/09 11:44:51;;;;;;;2.47;1.40;;;10.60;99.90;;;;;;7397177;19;20575;-71
2022/04/09 11:47:17;;;;;;;3.97;1.50;;;10.50;99.90;;;;;;7391205;19;20150;-75
2022/04/09 11:49:47;;;;;;;3.37;1.50;;;10.60;99.90;;;;;;7389155;19;20139;-72
2022/04/09 11:52:13;;;;;;;4.13;1.43;;;10.70;99.90;;;;;;7392848;19;20215;-76
2022/04/09 11:54:40;;;;;;;2.67;1.37;;;10.30;99.90;;;;;;7394641;19;20131;-79
2022/04/09 11:57:11;;;;;;;1.40;1.10;;;9.90;99.90;;;;;;7391839;19;20138;-71
2022/04/09 11:59:38;;;;;;;1.37;1.20;;;9.90;99.90;;;;;;7393721;19;20138;-74
2022/04/09 12:02:14;;;;;;;2.17;1.20;;;9.90;99.90;;;;;;7392193;19;20135;-73
2022/04/09 12:04:40;;;;;;;7.40;1.80;;;9.90;99.90;;;;;;7402133;19;20134;-80
2022/04/09 12:07:07;;;;;;;3.60;1.50;;;9.70;99.90;;;;;;7398347;19;20135;-77
2022/04/09 12:09:34;;;;;;;7.27;1.50;;;9.70;99.90;;;;;;7390933;19;20130;-71
2022/04/09 12:12:01;;;;;;;4.07;1.40;;;9.60;99.90;;;;;;7393257;19;20135;-73
2022/04/09 12:14:27;;;;;;;2.47;1.40;;;9.70;99.90;;;;;;7390480;19;20134;-71
2022/04/09 12:16:53;;;;;;;3.50;1.20;;;9.60;99.90;;;;;;7386780;19;20548;-71
2022/04/09 12:19:29;;;;;;;1.97;1.20;;;9.90;99.90;;;;;;7389245;19;20145;-73
2022/04/09 12:21:54;;;;;;;1.53;1.10;;;10.30;99.90;;;;;;7388909;19;20197;-72
2022/04/09 12:24:20;;;;;;;2.90;1.20;;;10.30;99.90;;;;;;7387625;19;20151;-76
2022/04/09 12:26:55;;;;;;;5.77;1.40;;;10.30;99.90;;;;;;7388116;19;20230;-79
2022/04/09 12:29:23;;;;;;;2.63;1.30;;;10.50;99.90;;;;;;7395604;19;20162;-79
2022/04/09 12:31:53;;;;;;;3.13;1.20;;;10.60;99.90;;;;;;7393589;19;20138;-76
2022/04/09 12:34:20;;;;;;;7.07;1.60;;;11.00;99.90;;;;;;7390906;19;20162;-76
2022/04/09 12:37:06;;;;;;;3.63;1.37;;;11.40;99.90;;;;;;7390178;19;20146;-71
2022/04/09 12:39:33;;;;;;;1.60;1.23;;;10.90;99.90;;;;;;7390493;19;20162;-72
2022/04/09 12:42:00;;;;;;;4.80;1.50;;;10.90;99.90;;;;;;7388588;19;20131;-73
2022/04/09 12:44:29;;;;;;;2.37;1.10;;;11.20;99.90;;;;;;7388450;19;20214;-79
2022/04/09 12:46:56;;;;;;;1.37;0.80;;;11.00;99.90;;;;;;7390088;19;20161;-75
2022/04/09 12:49:34;;;;;;;1.73;1.00;;;11.10;99.90;;;;;;7389817;19;20145;-71
2022/04/09 12:52:01;;;;;;;5.60;1.10;;;10.70;99.90;;;;;;7392957;19;20122;-78
2022/04/09 12:54:28;;;;;;;0.97;0.83;;;11.00;99.90;;;;;;7391360;19;20571;-78
2022/04/09 12:56:55;;;;;;;1.83;1.10;;;10.90;99.90;;;;;;7389162;19;20127;-72
2022/04/09 12:59:20;;;;;;;3.30;1.47;;;10.80;99.90;;;;;;7388416;19;20227;-73